createdAt,value
2022-11-14T00:01:30.106Z,10.10
2022-11-14T00:03:58.631Z,10.10
2022-11-14T00:06:27.108Z,10.10
2022-11-14T00:08:55.481Z,10.00
2022-11-14T00:11:25.711Z,10.00
2022-11-14T00:13:54.123Z,10.00
2022-11-14T00:16:22.999Z,10.00
2022-11-14T00:18:52.835Z,10.00
2022-11-14T00:21:21.519Z,10.00
2022-11-14T00:23:49.889Z,9.90
2022-11-14T00:26:18.247Z,9.90
2022-11-14T00:28:48.202Z,9.90
2022-11-14T00:31:16.490Z,9.90
2022-11-14T00:33:45.218Z,10.00
2022-11-14T00:36:13.562Z,9.90
2022-11-14T00:38:42.381Z,9.90
2022-11-14T00:41:10.722Z,9.90
2022-11-14T00:43:38.999Z,9.90
2022-11-14T00:46:09.015Z,9.90
2022-11-14T00:48:37.557Z,9.90
2022-11-14T00:51:06.026Z,9.90
2022-11-14T00:53:34.655Z,9.80
2022-11-14T00:56:03.091Z,9.80
2022-11-14T00:58:32.329Z,9.80
2022-11-14T01:01:01.063Z,9.90
2022-11-14T01:03:31.361Z,9.80
2022-11-14T01:06:04.610Z,9.90
2022-11-14T01:08:33.288Z,9.90
2022-11-14T01:11:01.808Z,9.80
2022-11-14T01:13:33.722Z,9.80
2022-11-14T01:16:02.713Z,9.80
2022-11-14T01:18:33.071Z,9.80
2022-11-14T01:21:05.303Z,9.80
2022-11-14T01:23:34.285Z,9.70
2022-11-14T01:26:07.613Z,9.90
2022-11-14T01:28:36.998Z,9.70
2022-11-14T01:31:13.373Z,9.70
2022-11-14T01:33:43.769Z,9.70
2022-11-14T01:36:12.755Z,9.70
2022-11-14T01:38:41.236Z,9.70
2022-11-14T01:41:10.814Z,9.60
2022-11-14T01:43:40.438Z,9.60
2022-11-14T01:46:13.886Z,9.60
2022-11-14T01:48:46.794Z,9.60
2022-11-14T01:51:22.737Z,9.60
2022-11-14T01:53:54.076Z,9.50
2022-11-14T01:56:28.003Z,9.50
2022-11-14T01:59:00.955Z,9.50
2022-11-14T02:01:31.338Z,9.50
2022-11-14T02:04:05.361Z,9.50
2022-11-14T02:06:36.417Z,9.40
2022-11-14T02:09:07.370Z,9.40
2022-11-14T02:11:40.993Z,9.40
2022-11-14T02:14:09.450Z,9.40
2022-11-14T02:16:39.365Z,9.40
2022-11-14T02:19:09.091Z,9.40
2022-11-14T02:21:39.102Z,9.40
2022-11-14T02:24:10.876Z,9.40
2022-11-14T02:26:40.140Z,9.40
2022-11-14T02:29:10.220Z,9.30
2022-11-14T02:31:38.855Z,9.30
2022-11-14T02:34:07.517Z,9.30
2022-11-14T02:36:36.789Z,9.40
2022-11-14T02:39:06.939Z,9.30
2022-11-14T02:41:35.198Z,9.30
2022-11-14T02:44:03.888Z,9.30
2022-11-14T02:46:32.239Z,9.30
2022-11-14T02:49:00.944Z,9.30
2022-11-14T02:51:29.203Z,9.30
2022-11-14T02:53:57.996Z,9.30
2022-11-14T02:56:27.804Z,9.30
2022-11-14T02:58:56.744Z,9.30
2022-11-14T03:01:25.097Z,9.30
2022-11-14T03:03:53.731Z,9.30
2022-11-14T03:06:22.016Z,9.30
2022-11-14T03:08:50.260Z,9.30
2022-11-14T03:11:19.086Z,9.30
2022-11-14T03:13:48.875Z,9.30
2022-11-14T03:16:17.718Z,9.20
2022-11-14T03:18:46.050Z,9.30
2022-11-14T03:21:17.094Z,9.30
2022-11-14T03:23:45.872Z,9.30
2022-11-14T03:26:15.381Z,9.20
2022-11-14T03:28:44.388Z,9.20
2022-11-14T03:31:15.433Z,9.30
2022-11-14T03:33:43.918Z,9.30
2022-11-14T03:36:12.589Z,9.30
2022-11-14T03:38:40.844Z,9.30
2022-11-14T03:41:09.096Z,9.30
2022-11-14T03:43:37.678Z,9.30
2022-11-14T03:46:06.294Z,9.30
2022-11-14T03:48:36.448Z,9.30
2022-11-14T03:51:04.974Z,9.30
2022-11-14T03:53:33.539Z,9.30
2022-11-14T03:56:01.835Z,9.30
2022-11-14T03:58:30.825Z,9.30
2022-11-14T04:00:59.976Z,9.30
2022-11-14T04:03:28.605Z,9.30
2022-11-14T04:05:58.294Z,9.30
2022-11-14T04:08:26.941Z,9.30
2022-11-14T04:10:55.721Z,9.30
2022-11-14T04:13:23.927Z,9.30
2022-11-14T04:15:57.243Z,9.30
2022-11-14T04:18:26.519Z,9.30
2022-11-14T04:20:55.689Z,9.30
2022-11-14T04:23:25.635Z,9.30
2022-11-14T04:25:54.651Z,9.40
2022-11-14T04:28:23.055Z,9.40
2022-11-14T04:30:51.816Z,9.30
2022-11-14T04:33:20.178Z,9.30
2022-11-14T04:35:49.800Z,9.30
2022-11-14T04:38:18.390Z,9.30
2022-11-14T04:40:51.882Z,9.30
2022-11-14T04:43:20.684Z,9.20
2022-11-14T04:45:49.227Z,9.30
2022-11-14T04:48:17.755Z,9.30
2022-11-14T04:50:47.288Z,9.30
2022-11-14T04:53:15.863Z,9.30
2022-11-14T04:55:45.849Z,9.20
2022-11-14T04:58:15.789Z,9.30
2022-11-14T05:00:44.492Z,9.20
2022-11-14T05:03:12.804Z,9.20
2022-11-14T05:05:42.359Z,9.20
2022-11-14T05:08:11.072Z,9.20
2022-11-14T05:10:39.682Z,9.20
2022-11-14T05:13:07.910Z,9.20
2022-11-14T05:15:38.328Z,9.20
2022-11-14T05:18:06.870Z,9.20
2022-11-14T05:20:35.637Z,9.20
2022-11-14T05:23:03.976Z,9.20
2022-11-14T05:25:32.542Z,9.20
2022-11-14T05:28:00.833Z,9.20
2022-11-14T05:30:29.157Z,9.10
2022-11-14T05:32:59.163Z,9.10
2022-11-14T05:35:27.340Z,9.20
2022-11-14T05:37:59.034Z,9.20
2022-11-14T05:40:28.388Z,9.20
2022-11-14T05:42:57.117Z,9.20
2022-11-14T05:45:25.755Z,9.20
2022-11-14T05:47:55.185Z,9.30
2022-11-14T05:50:24.860Z,9.30
2022-11-14T05:52:53.422Z,9.30
2022-11-14T05:55:24.871Z,9.30
2022-11-14T05:57:53.790Z,9.30
2022-11-14T06:00:22.122Z,9.30
2022-11-14T06:02:54.059Z,9.20
2022-11-14T06:05:22.430Z,9.20
2022-11-14T06:07:56.576Z,9.20
2022-11-14T06:10:25.197Z,9.20
2022-11-14T06:12:54.100Z,9.10
2022-11-14T06:15:22.544Z,9.10
2022-11-14T06:17:53.700Z,9.10
2022-11-14T06:20:22.572Z,9.10
2022-11-14T06:22:51.212Z,9.00
2022-11-14T06:25:20.811Z,9.10
2022-11-14T06:27:49.489Z,8.90
2022-11-14T06:30:18.088Z,9.00
2022-11-14T06:32:46.905Z,9.00
2022-11-14T06:35:15.736Z,9.00
2022-11-14T06:37:44.491Z,9.00
2022-11-14T06:40:13.265Z,9.00
2022-11-14T06:42:43.630Z,9.00
2022-11-14T06:45:12.487Z,9.00
2022-11-14T06:47:41.394Z,8.90
2022-11-14T06:50:10.432Z,8.90
2022-11-14T06:52:38.961Z,8.90
2022-11-14T06:55:08.122Z,9.00
2022-11-14T06:57:36.819Z,9.00
2022-11-14T07:00:08.013Z,9.00
2022-11-14T07:02:36.639Z,9.00
2022-11-14T07:05:05.454Z,9.00
2022-11-14T07:07:34.046Z,9.00
2022-11-14T07:10:02.464Z,9.10
2022-11-14T07:12:32.701Z,9.00
2022-11-14T07:15:00.985Z,9.00
2022-11-14T07:17:31.621Z,9.00
2022-11-14T07:20:00.002Z,9.10
2022-11-14T07:22:28.686Z,9.10
2022-11-14T07:24:57.052Z,9.10
2022-11-14T07:27:25.687Z,9.10
2022-11-14T07:29:54.043Z,9.10
2022-11-14T07:32:22.661Z,9.10
2022-11-14T07:34:52.367Z,9.10
2022-11-14T07:37:21.167Z,9.10
2022-11-14T07:39:49.603Z,9.20
2022-11-14T07:42:18.161Z,9.20
2022-11-14T07:44:46.371Z,9.20
2022-11-14T07:47:14.919Z,9.10
2022-11-14T07:49:43.262Z,9.10
2022-11-14T07:52:13.177Z,9.20
2022-11-14T07:54:42.360Z,9.10
2022-11-14T07:57:10.952Z,9.10
2022-11-14T07:59:39.277Z,9.10
2022-11-14T08:02:10.925Z,9.10
2022-11-14T08:04:40.025Z,9.10
2022-11-14T08:07:09.984Z,9.10
2022-11-14T08:09:39.664Z,9.10
2022-11-14T08:12:08.378Z,9.10
2022-11-14T08:14:36.946Z,9.20
2022-11-14T08:17:06.318Z,9.20
2022-11-14T08:19:34.854Z,9.20
2022-11-14T08:22:03.538Z,9.20
2022-11-14T08:24:31.988Z,9.20
2022-11-14T08:27:02.099Z,9.20
2022-11-14T08:29:30.435Z,9.20
2022-11-14T08:32:00.227Z,9.20
2022-11-14T08:34:29.318Z,9.20
2022-11-14T08:36:58.387Z,9.20
2022-11-14T08:39:26.962Z,9.20
2022-11-14T08:41:55.568Z,9.20
2022-11-14T08:44:25.518Z,9.30
2022-11-14T08:46:54.116Z,9.30
2022-11-14T08:49:22.490Z,9.30
2022-11-14T08:51:53.440Z,9.30
2022-11-14T08:54:22.123Z,9.30
2022-11-14T08:56:51.188Z,9.40
2022-11-14T08:59:19.718Z,9.40
2022-11-14T09:01:50.167Z,9.40
2022-11-14T09:04:18.986Z,9.40
2022-11-14T09:06:48.123Z,9.40
2022-11-14T09:09:16.640Z,9.40
2022-11-14T09:11:50.175Z,9.40
2022-11-14T09:14:19.582Z,9.50
2022-11-14T09:16:50.277Z,9.50
2022-11-14T09:19:18.754Z,9.50
2022-11-14T09:21:47.560Z,9.40
2022-11-14T09:24:16.642Z,9.40
2022-11-14T09:26:55.207Z,9.40
2022-11-14T09:29:25.397Z,9.40
2022-11-14T09:31:56.910Z,9.40
2022-11-14T09:34:25.376Z,9.40
2022-11-14T09:36:54.093Z,9.40
2022-11-14T09:39:22.620Z,9.40
2022-11-14T09:42:07.372Z,9.30
2022-11-14T09:44:50.801Z,9.20
2022-11-14T09:47:26.124Z,9.30
2022-11-14T09:50:00.558Z,9.20
2022-11-14T09:52:36.260Z,9.20
2022-11-14T09:55:13.221Z,9.20
2022-11-14T09:57:45.082Z,9.20
2022-11-14T10:00:18.818Z,9.20
2022-11-14T10:03:01.271Z,9.20
2022-11-14T10:05:44.176Z,9.30
2022-11-14T10:08:26.749Z,9.30
2022-11-14T10:10:57.626Z,9.30
2022-11-14T10:13:48.032Z,9.40
2022-11-14T10:16:22.823Z,9.40
2022-11-14T10:19:10.602Z,9.50
2022-11-14T10:21:51.455Z,9.60
2022-11-14T10:24:40.402Z,9.60
2022-11-14T10:27:16.914Z,9.70
2022-11-14T10:30:03.349Z,9.70
2022-11-14T10:33:00.127Z,9.70
2022-11-14T10:35:37.888Z,9.80
2022-11-14T10:38:14.463Z,9.80
2022-11-14T10:40:47.201Z,9.80
2022-11-14T10:43:23.828Z,9.90
2022-11-14T10:45:55.732Z,9.90
2022-11-14T10:48:32.478Z,9.90
2022-11-14T10:51:08.019Z,9.90
2022-11-14T10:53:49.693Z,10.00
2022-11-14T10:56:18.978Z,10.00
2022-11-14T10:58:49.584Z,10.00
2022-11-14T11:01:38.634Z,10.00
2022-11-14T11:04:19.881Z,10.00
2022-11-14T11:06:51.933Z,10.00
2022-11-14T11:09:45.510Z,10.10
2022-11-14T11:12:19.369Z,10.10
2022-11-14T11:14:49.931Z,10.10
2022-11-14T11:17:22.177Z,10.10
2022-11-14T11:19:51.007Z,10.10
2022-11-14T11:22:36.301Z,10.10
2022-11-14T11:25:23.351Z,10.10
2022-11-14T11:28:07.485Z,10.10
2022-11-14T11:30:36.136Z,10.00
2022-11-14T11:33:23.956Z,10.00
2022-11-14T11:35:56.234Z,10.00
2022-11-14T11:38:29.644Z,10.00
2022-11-14T11:41:20.657Z,10.00
2022-11-14T11:44:04.851Z,10.10
2022-11-14T11:46:41.073Z,10.20
2022-11-14T11:49:15.761Z,10.30
2022-11-14T11:51:46.855Z,10.30
2022-11-14T11:54:20.174Z,10.40
2022-11-14T11:56:54.308Z,10.40
2022-11-14T11:59:30.139Z,10.40
2022-11-14T12:01:58.720Z,10.40
2022-11-14T12:04:27.654Z,10.40
2022-11-14T12:07:02.329Z,10.30
2022-11-14T12:10:08.816Z,10.30
2022-11-14T12:12:50.628Z,10.30
2022-11-14T12:15:27.388Z,10.30
2022-11-14T12:18:26.080Z,10.20
2022-11-14T12:21:11.364Z,10.20
2022-11-14T12:24:13.944Z,10.20
2022-11-14T12:26:58.641Z,10.10
2022-11-14T12:29:46.386Z,10.10
2022-11-14T12:32:18.725Z,10.00
2022-11-14T12:34:50.033Z,10.00
2022-11-14T12:37:24.284Z,10.10
2022-11-14T12:40:01.688Z,10.10
2022-11-14T12:42:33.410Z,10.10
2022-11-14T12:45:02.333Z,10.10
2022-11-14T12:47:31.448Z,10.00
2022-11-14T12:50:35.192Z,10.00
2022-11-14T12:53:04.151Z,10.00
2022-11-14T12:55:57.185Z,10.00
2022-11-14T12:58:45.860Z,10.00
2022-11-14T13:01:29.397Z,10.00
2022-11-14T13:04:18.243Z,10.00
2022-11-14T13:07:01.638Z,10.00
2022-11-14T13:09:36.727Z,10.10
2022-11-14T13:12:46.254Z,10.20
2022-11-14T13:15:49.107Z,10.20
2022-11-14T13:18:41.527Z,10.20
2022-11-14T13:21:45.034Z,10.20
2022-11-14T13:24:17.352Z,10.20
2022-11-14T13:26:54.753Z,10.10
2022-11-14T13:30:00.256Z,10.00
2022-11-14T13:32:58.419Z,10.00
2022-11-14T13:35:42.413Z,10.00
2022-11-14T13:38:59.172Z,9.90
2022-11-14T13:41:57.773Z,9.90
2022-11-14T13:45:03.110Z,9.90
2022-11-14T13:47:52.325Z,9.90
2022-11-14T13:50:29.573Z,9.90
2022-11-14T13:52:58.908Z,9.90
2022-11-14T13:55:38.697Z,9.80
2022-11-14T13:58:25.432Z,9.80
2022-11-14T14:01:15.212Z,9.80
2022-11-14T14:04:04.456Z,9.80
2022-11-14T14:06:47.305Z,9.80
2022-11-14T14:09:24.133Z,9.70
2022-11-14T14:12:09.764Z,9.70
2022-11-14T14:14:57.878Z,9.70
2022-11-14T14:17:33.519Z,9.70
2022-11-14T14:20:17.683Z,9.60
2022-11-14T14:23:11.679Z,9.60
2022-11-14T14:25:47.681Z,9.60
2022-11-14T14:29:06.308Z,9.70
2022-11-14T14:31:38.561Z,9.80
2022-11-14T14:34:24.305Z,9.90
2022-11-14T14:36:55.070Z,10.00
2022-11-14T14:39:26.901Z,10.10
2022-11-14T14:41:57.296Z,10.10
2022-11-14T14:44:28.597Z,10.20
2022-11-14T14:46:57.237Z,10.20
2022-11-14T14:49:29.246Z,10.20
2022-11-14T14:51:58.910Z,10.20
2022-11-14T14:54:30.991Z,10.20
2022-11-14T14:57:02.774Z,10.20
2022-11-14T14:59:32.331Z,10.20
2022-11-14T15:02:01.482Z,10.20
2022-11-14T15:04:31.493Z,10.20
2022-11-14T15:07:00.318Z,10.20
2022-11-14T15:09:30.785Z,10.20
2022-11-14T15:12:01.575Z,10.30
2022-11-14T15:14:33.095Z,10.30
2022-11-14T15:17:02.307Z,10.30
2022-11-14T15:19:36.914Z,10.30
2022-11-14T15:22:21.079Z,10.30
2022-11-14T15:25:07.555Z,10.30
2022-11-14T15:27:45.371Z,10.30
2022-11-14T15:30:23.569Z,10.30
2022-11-14T15:32:53.901Z,10.20
2022-11-14T15:35:32.224Z,10.30
2022-11-14T15:41:23.619Z,10.30
2022-11-14T15:43:53.398Z,10.20
2022-11-14T15:46:44.022Z,10.20
2022-11-14T15:49:21.645Z,10.20
2022-11-14T15:51:53.560Z,10.20
2022-11-14T15:54:24.566Z,10.20
2022-11-14T15:56:56.023Z,10.20
2022-11-14T15:59:24.685Z,10.20
2022-11-14T16:01:57.520Z,10.20
2022-11-14T16:04:30.755Z,10.10
2022-11-14T16:07:00.041Z,10.10
2022-11-14T16:09:28.528Z,10.10
2022-11-14T16:11:58.532Z,10.00
2022-11-14T16:14:26.836Z,10.00
2022-11-14T16:16:55.397Z,10.00
2022-11-14T16:19:23.828Z,10.00
2022-11-14T16:21:52.576Z,10.00
2022-11-14T16:24:22.584Z,10.00
2022-11-14T16:26:51.510Z,10.00
2022-11-14T16:29:21.435Z,10.00
2022-11-14T16:31:51.923Z,10.00
2022-11-14T16:34:22.568Z,9.90
2022-11-14T16:36:51.678Z,9.90
2022-11-14T16:39:19.995Z,9.90
2022-11-14T16:41:48.493Z,9.80
2022-11-14T16:44:17.754Z,9.80
2022-11-14T16:46:47.853Z,9.80
2022-11-14T16:49:17.133Z,9.80
2022-11-14T16:51:49.642Z,9.80
2022-11-14T16:54:19.687Z,9.80
2022-11-14T16:56:49.395Z,9.80
2022-11-14T16:59:17.624Z,9.80
2022-11-14T17:01:48.588Z,9.80
2022-11-14T17:04:17.001Z,9.80
2022-11-14T17:06:45.628Z,9.80
2022-11-14T17:09:15.347Z,9.80
2022-11-14T17:11:44.712Z,9.80
2022-11-14T17:14:13.202Z,9.70
2022-11-14T17:16:42.019Z,9.80
2022-11-14T17:19:12.132Z,9.80
2022-11-14T17:21:41.225Z,9.80
2022-11-14T17:24:09.957Z,9.70
2022-11-14T17:26:38.704Z,9.80
2022-11-14T17:29:07.395Z,9.70
2022-11-14T17:31:38.854Z,9.70
2022-11-14T17:34:11.792Z,9.70
2022-11-14T17:36:40.624Z,9.60
2022-11-14T17:39:09.205Z,9.60
2022-11-14T17:41:38.833Z,9.60
2022-11-14T17:44:09.369Z,9.60
2022-11-14T17:46:38.242Z,9.60
2022-11-14T17:49:07.035Z,9.60
2022-11-14T17:51:37.261Z,9.60
2022-11-14T17:54:06.397Z,9.60
2022-11-14T17:56:46.481Z,9.50
2022-11-14T17:59:18.502Z,9.50
2022-11-14T18:01:47.847Z,9.50
2022-11-14T18:04:16.300Z,9.40
2022-11-14T18:06:46.333Z,9.40
2022-11-14T18:09:14.849Z,9.40
2022-11-14T18:11:44.108Z,9.40
2022-11-14T18:14:14.473Z,9.30
2022-11-14T18:17:05.881Z,9.30
2022-11-14T18:19:31.769Z,9.30
2022-11-14T18:22:01.889Z,9.40
2022-11-14T18:24:30.778Z,9.30
2022-11-14T18:27:00.254Z,9.30
2022-11-14T18:29:30.804Z,9.30
2022-11-14T18:31:59.650Z,9.20
2022-11-14T18:34:28.149Z,9.20
2022-11-14T18:36:57.203Z,9.20
2022-11-14T18:39:29.155Z,9.30
2022-11-14T18:42:00.432Z,9.30
2022-11-14T18:44:29.373Z,9.30
2022-11-14T18:46:58.226Z,9.30
2022-11-14T18:49:28.425Z,9.30
2022-11-14T18:51:57.907Z,9.30
2022-11-14T18:54:27.820Z,9.30
2022-11-14T18:56:56.652Z,9.30
2022-11-14T18:59:25.151Z,9.20
2022-11-14T19:01:53.949Z,9.30
2022-11-14T19:04:23.599Z,9.30
2022-11-14T19:06:52.386Z,9.30
2022-11-14T19:09:23.617Z,9.30
2022-11-14T19:12:11.418Z,9.30
2022-11-14T19:14:40.094Z,9.30
2022-11-14T19:17:08.928Z,9.30
2022-11-14T19:19:37.425Z,9.30
2022-11-14T19:22:06.016Z,9.30
2022-11-14T19:24:34.330Z,9.30
2022-11-14T19:27:04.363Z,9.30
2022-11-14T19:29:32.838Z,9.30
2022-11-14T19:32:01.766Z,9.20
2022-11-14T19:34:30.339Z,9.20
2022-11-14T19:37:00.607Z,9.20
2022-11-14T19:39:30.135Z,9.20
2022-11-14T19:41:58.872Z,9.20
2022-11-14T19:44:28.635Z,9.20
2022-11-14T19:46:57.429Z,9.20
2022-11-14T19:49:25.804Z,9.20
2022-11-14T19:51:54.528Z,9.20
2022-11-14T19:54:22.917Z,9.20
2022-11-14T19:56:52.000Z,9.10
2022-11-14T19:59:24.435Z,9.10
2022-11-14T20:01:55.515Z,9.10
2022-11-14T20:04:24.710Z,9.10
2022-11-14T20:06:54.268Z,9.00
2022-11-14T20:09:22.915Z,9.00
2022-11-14T20:11:51.683Z,9.00
2022-11-14T20:14:20.021Z,9.00
2022-11-14T20:16:49.046Z,9.00
2022-11-14T20:19:18.649Z,9.00
2022-11-14T20:21:47.185Z,9.00
2022-11-14T20:24:21.402Z,9.00
2022-11-14T20:26:50.055Z,9.00
2022-11-14T20:29:18.607Z,9.00
2022-11-14T20:31:47.330Z,9.00
2022-11-14T20:34:15.709Z,9.00
2022-11-14T20:37:09.900Z,9.00
2022-11-14T20:39:35.675Z,9.00
2022-11-14T20:42:04.597Z,9.00
2022-11-14T20:44:33.193Z,9.00
2022-11-14T20:47:03.354Z,9.00
2022-11-14T20:49:34.402Z,9.00
2022-11-14T20:52:05.614Z,9.00
2022-11-14T20:54:34.508Z,9.00
2022-11-14T20:57:03.115Z,8.90
2022-11-14T20:59:31.572Z,8.90
2022-11-14T21:02:00.424Z,8.90
2022-11-14T21:04:29.232Z,8.90
2022-11-14T21:06:58.133Z,8.90
2022-11-14T21:09:27.832Z,8.90
2022-11-14T21:11:56.524Z,8.80
2022-11-14T21:14:24.792Z,8.90
2022-11-14T21:16:53.390Z,8.80
2022-11-14T21:19:22.958Z,8.80
2022-11-14T21:21:51.627Z,8.80
2022-11-14T21:24:19.999Z,8.70
2022-11-14T21:26:49.900Z,8.70
2022-11-14T21:29:18.428Z,8.70
2022-11-14T21:31:47.696Z,8.70
2022-11-14T21:34:18.182Z,8.70
2022-11-14T21:36:47.306Z,8.70
2022-11-14T21:39:17.596Z,8.70
2022-11-14T21:41:48.431Z,8.80
2022-11-14T21:44:19.147Z,8.70
2022-11-14T21:46:49.795Z,8.70
2022-11-14T21:49:18.581Z,8.70
2022-11-14T21:51:48.396Z,8.60
2022-11-14T21:54:20.055Z,8.60
2022-11-14T21:56:48.609Z,8.60
2022-11-14T21:59:21.600Z,8.70
2022-11-14T22:02:09.741Z,8.70
2022-11-14T22:04:38.655Z,8.70
2022-11-14T22:07:09.404Z,8.60
2022-11-14T22:09:42.520Z,8.60
2022-11-14T22:12:13.740Z,8.70
2022-11-14T22:14:43.505Z,8.70
2022-11-14T22:17:12.167Z,8.70
2022-11-14T22:19:40.900Z,8.70
2022-11-14T22:22:09.691Z,8.70
2022-11-14T22:24:38.720Z,8.70
2022-11-14T22:27:07.473Z,8.70
2022-11-14T22:29:35.856Z,8.70
2022-11-14T22:32:06.014Z,8.70
2022-11-14T22:34:34.370Z,8.80
2022-11-14T22:37:03.069Z,8.80
2022-11-14T22:39:31.354Z,8.70
2022-11-14T22:41:59.990Z,8.70
2022-11-14T22:44:28.271Z,8.70
2022-11-14T22:46:56.875Z,8.70
2022-11-14T22:49:26.702Z,8.70
2022-11-14T22:51:55.571Z,8.70
2022-11-14T22:54:23.823Z,8.80
2022-11-14T22:56:52.543Z,8.70
2022-11-14T22:59:21.223Z,8.60
2022-11-14T23:01:50.008Z,8.60
2022-11-14T23:04:18.621Z,8.60
2022-11-14T23:06:48.962Z,8.60
2022-11-14T23:09:17.460Z,8.60
2022-11-14T23:11:46.178Z,8.60
2022-11-14T23:14:14.974Z,8.60
2022-11-14T23:16:43.840Z,8.70
2022-11-14T23:19:12.200Z,8.70
2022-11-14T23:21:40.936Z,8.70
2022-11-14T23:24:15.360Z,8.70
2022-11-14T23:26:44.134Z,8.70
2022-11-14T23:29:15.120Z,8.70
2022-11-14T23:31:43.883Z,8.70
2022-11-14T23:34:12.322Z,8.70
2022-11-14T23:36:40.939Z,8.70
2022-11-14T23:39:10.719Z,8.70
2022-11-14T23:41:39.368Z,8.70
2022-11-14T23:44:07.704Z,8.80
2022-11-14T23:46:36.519Z,8.80
2022-11-14T23:49:04.861Z,8.70
2022-11-14T23:51:34.082Z,8.70
2022-11-14T23:54:02.383Z,8.70
2022-11-14T23:56:32.413Z,8.70
2022-11-14T23:59:00.958Z,8.70
